createdAt,value
2019-03-16T00:01:05.867Z,10.50
2019-03-16T00:06:13.202Z,10.60
2019-03-16T00:11:19.972Z,10.70
2019-03-16T00:16:27.981Z,10.90
2019-03-16T00:21:35.022Z,11.00
2019-03-16T00:26:42.526Z,10.80
2019-03-16T00:31:49.249Z,10.80
2019-03-16T00:36:56.834Z,10.70
2019-03-16T00:42:03.938Z,10.70
2019-03-16T00:47:11.761Z,10.80
2019-03-16T00:52:19.520Z,10.50
2019-03-16T00:57:26.439Z,10.20
2019-03-16T01:02:33.395Z,10.10
2019-03-16T01:07:41.024Z,10.00
2019-03-16T01:12:47.211Z,10.00
2019-03-16T01:17:53.890Z,9.90
2019-03-16T01:23:00.454Z,9.90
2019-03-16T01:28:07.862Z,9.90
2019-03-16T01:33:15.671Z,10.00
2019-03-16T01:38:22.615Z,10.10
2019-03-16T01:43:30.112Z,10.30
2019-03-16T01:48:37.783Z,10.60
2019-03-16T01:53:43.752Z,10.70
2019-03-16T01:58:49.944Z,10.70
2019-03-16T02:03:57.700Z,10.80
2019-03-16T02:09:06.156Z,10.90
2019-03-16T02:14:13.340Z,11.00
2019-03-16T02:19:20.897Z,11.00
2019-03-16T02:24:29.119Z,11.00
2019-03-16T02:29:35.653Z,11.10
2019-03-16T02:34:43.044Z,11.20
2019-03-16T02:39:50.888Z,11.30
2019-03-16T02:44:57.669Z,11.40
2019-03-16T02:50:04.323Z,11.40
2019-03-16T02:55:10.626Z,11.50
2019-03-16T03:00:18.819Z,11.50
2019-03-16T03:05:25.001Z,11.60
2019-03-16T03:10:32.675Z,11.60
2019-03-16T03:15:40.461Z,11.60
2019-03-16T03:20:48.162Z,11.50
2019-03-16T03:25:54.669Z,11.50
2019-03-16T03:31:02.013Z,11.50
2019-03-16T03:36:09.620Z,11.40
2019-03-16T03:41:15.852Z,11.20
2019-03-16T03:46:23.703Z,11.00
2019-03-16T03:51:31.225Z,10.80
2019-03-16T03:56:39.235Z,10.70
2019-03-16T04:01:47.430Z,10.50
2019-03-16T04:06:54.397Z,10.60
2019-03-16T04:12:00.691Z,10.60
2019-03-16T04:17:08.528Z,10.40
2019-03-16T04:22:16.043Z,10.40
2019-03-16T04:27:23.715Z,10.20
2019-03-16T04:32:31.371Z,10.10
2019-03-16T04:37:38.956Z,10.10
2019-03-16T04:42:45.372Z,10.10
2019-03-16T04:47:53.011Z,10.00
2019-03-16T04:53:00.095Z,10.00
2019-03-16T04:58:07.772Z,9.90
2019-03-16T05:03:13.698Z,9.60
2019-03-16T05:08:19.655Z,9.50
2019-03-16T05:13:26.460Z,9.80
2019-03-16T05:18:33.334Z,9.90
2019-03-16T05:23:39.532Z,9.80
2019-03-16T05:28:47.089Z,9.70
2019-03-16T05:33:54.231Z,9.50
2019-03-16T05:39:01.838Z,9.50
2019-03-16T05:44:09.582Z,9.40
2019-03-16T05:49:15.687Z,9.50
2019-03-16T05:54:22.671Z,9.40
2019-03-16T05:59:29.409Z,9.30
2019-03-16T06:04:37.134Z,9.40
2019-03-16T06:09:44.147Z,9.60
2019-03-16T06:14:51.579Z,9.90
2019-03-16T06:19:59.414Z,10.00
2019-03-16T06:25:06.684Z,10.10
2019-03-16T06:30:14.325Z,10.30
2019-03-16T06:35:24.928Z,10.60
2019-03-16T06:40:28.909Z,10.80
2019-03-16T06:45:34.966Z,11.10
2019-03-16T06:50:41.074Z,11.10
2019-03-16T06:55:48.573Z,11.10
2019-03-16T07:00:54.533Z,11.10
2019-03-16T07:06:00.797Z,11.20
2019-03-16T07:11:06.779Z,11.30
2019-03-16T07:16:13.746Z,11.50
2019-03-16T07:21:19.938Z,11.50
2019-03-16T07:26:26.355Z,11.70
2019-03-16T07:31:33.419Z,11.90
2019-03-16T07:36:40.799Z,12.10
2019-03-16T07:41:48.814Z,12.30
2019-03-16T07:46:54.993Z,12.40
2019-03-16T07:52:02.624Z,12.60
2019-03-16T07:57:09.677Z,13.00
2019-03-16T08:02:15.849Z,13.20
2019-03-16T08:07:22.065Z,13.30
2019-03-16T08:12:28.145Z,13.40
2019-03-16T08:17:34.126Z,13.50
2019-03-16T08:22:40.515Z,13.70
2019-03-16T08:27:54.223Z,13.70
2019-03-16T08:32:56.360Z,13.90
2019-03-16T08:38:03.650Z,13.90
2019-03-16T08:43:11.519Z,14.00
2019-03-16T08:48:22.823Z,14.30
2019-03-16T08:53:25.626Z,14.30
2019-03-16T08:58:33.214Z,14.50
2019-03-16T09:03:43.888Z,14.60
2019-03-16T09:08:49.451Z,14.80
2019-03-16T09:13:57.034Z,14.80
2019-03-16T09:19:04.751Z,14.80
2019-03-16T09:24:12.117Z,15.00
2019-03-16T09:29:19.646Z,15.00
2019-03-16T09:34:27.019Z,15.00
2019-03-16T09:39:34.162Z,15.20
2019-03-16T09:44:41.814Z,15.10
2019-03-16T09:49:48.228Z,15.10
2019-03-16T09:54:55.538Z,15.10
2019-03-16T10:00:03.510Z,15.20
2019-03-16T10:05:09.745Z,15.10
2019-03-16T10:10:17.410Z,15.30
2019-03-16T10:15:23.984Z,15.10
2019-03-16T10:20:30.739Z,15.30
2019-03-16T10:25:38.383Z,15.60
2019-03-16T10:30:44.345Z,15.20
2019-03-16T10:35:51.396Z,15.40
2019-03-16T10:40:59.134Z,15.60
2019-03-16T10:46:08.470Z,15.80
2019-03-16T10:51:15.689Z,15.90
2019-03-16T10:56:22.014Z,16.40
2019-03-16T11:01:29.663Z,16.80
2019-03-16T11:06:36.019Z,16.70
2019-03-16T11:11:42.396Z,17.00
2019-03-16T11:16:50.383Z,17.70
2019-03-16T11:21:57.763Z,17.60
2019-03-16T11:27:03.920Z,17.80
2019-03-16T11:32:09.909Z,17.80
2019-03-16T11:37:17.762Z,18.00
2019-03-16T11:42:24.373Z,18.60
2019-03-16T11:47:31.479Z,18.10
2019-03-16T11:52:39.215Z,19.00
2019-03-16T11:57:45.747Z,19.30
2019-03-16T12:02:53.054Z,19.70
2019-03-16T12:08:00.682Z,19.90
2019-03-16T12:13:17.313Z,19.40
2019-03-16T12:18:16.172Z,20.00
2019-03-16T12:23:23.367Z,19.60
2019-03-16T12:28:29.424Z,19.80
2019-03-16T12:33:35.326Z,20.00
2019-03-16T12:38:43.015Z,19.30
2019-03-16T12:43:50.682Z,19.30
2019-03-16T12:48:58.261Z,20.10
2019-03-16T12:54:04.299Z,20.60
2019-03-16T12:59:11.113Z,19.50
2019-03-16T13:04:18.739Z,19.40
2019-03-16T13:09:25.090Z,19.70
2019-03-16T13:14:31.178Z,20.10
2019-03-16T13:19:38.688Z,20.00
2019-03-16T13:24:44.698Z,20.20
2019-03-16T13:29:58.825Z,20.10
2019-03-16T13:35:01.536Z,20.50
2019-03-16T13:40:11.091Z,21.50
2019-03-16T13:45:17.752Z,21.20
2019-03-16T13:50:23.967Z,21.40
2019-03-16T13:55:31.839Z,21.00
2019-03-16T14:00:39.397Z,21.40
2019-03-16T14:05:47.331Z,21.60
2019-03-16T14:10:54.240Z,22.00
2019-03-16T14:16:02.369Z,22.40
2019-03-16T14:21:09.869Z,22.10
2019-03-16T14:26:17.533Z,22.60
2019-03-16T14:31:24.486Z,21.90
2019-03-16T14:36:31.809Z,21.90
2019-03-16T14:41:39.399Z,20.80
2019-03-16T14:46:46.965Z,20.90
2019-03-16T14:51:53.750Z,20.60
2019-03-16T14:57:02.047Z,20.80
2019-03-16T15:02:09.968Z,21.70
2019-03-16T15:07:16.032Z,21.10
2019-03-16T15:12:22.945Z,21.70
2019-03-16T15:17:29.548Z,21.90
2019-03-16T15:22:36.329Z,22.30
2019-03-16T15:27:43.371Z,21.70
2019-03-16T15:32:50.927Z,22.10
2019-03-16T15:37:57.015Z,21.20
2019-03-16T15:43:03.787Z,21.70
2019-03-16T15:48:11.349Z,21.20
2019-03-16T15:53:19.013Z,21.00
2019-03-16T15:58:25.341Z,21.40
2019-03-16T16:03:33.317Z,21.10
2019-03-16T16:08:39.662Z,21.20
2019-03-16T16:13:47.229Z,21.60
2019-03-16T16:18:53.340Z,20.80
2019-03-16T16:23:59.757Z,20.30
2019-03-16T16:29:07.423Z,20.80
2019-03-16T16:34:14.973Z,19.90
2019-03-16T16:39:22.933Z,19.20
2019-03-16T16:44:30.496Z,19.10
2019-03-16T16:49:38.049Z,19.50
2019-03-16T16:54:44.047Z,19.90
2019-03-16T16:59:51.500Z,19.50
2019-03-16T17:04:58.165Z,19.20
2019-03-16T17:10:04.917Z,19.20
2019-03-16T17:15:12.586Z,18.50
2019-03-16T17:20:19.424Z,18.00
2019-03-16T17:25:26.384Z,16.90
2019-03-16T17:30:32.488Z,16.60
2019-03-16T17:35:38.877Z,16.50
2019-03-16T17:40:44.929Z,16.70
2019-03-16T17:45:51.948Z,17.00
2019-03-16T17:50:59.784Z,16.80
2019-03-16T17:56:07.156Z,16.40
2019-03-16T18:01:13.748Z,16.50
2019-03-16T18:06:20.941Z,16.30
2019-03-16T18:11:28.840Z,16.20
2019-03-16T18:16:35.889Z,16.30
2019-03-16T18:21:43.015Z,16.30
2019-03-16T18:26:48.915Z,16.00
2019-03-16T18:32:07.370Z,15.80
2019-03-16T18:37:03.799Z,15.50
2019-03-16T18:42:11.494Z,15.20
2019-03-16T18:47:19.656Z,15.20
2019-03-16T18:52:26.503Z,15.20
2019-03-16T18:57:33.684Z,15.00
2019-03-16T19:02:41.515Z,14.90
2019-03-16T19:07:49.072Z,14.70
2019-03-16T19:12:57.976Z,14.50
2019-03-16T19:18:04.990Z,14.40
2019-03-16T19:23:12.816Z,14.50
2019-03-16T19:28:20.841Z,14.30
2019-03-16T19:33:28.702Z,14.20
2019-03-16T19:38:35.023Z,14.00
2019-03-16T19:43:44.088Z,13.80
2019-03-16T19:48:51.870Z,13.90
2019-03-16T19:53:59.563Z,13.90
2019-03-16T19:59:07.358Z,13.70
2019-03-16T20:04:15.213Z,13.90
2019-03-16T20:09:24.761Z,13.50
2019-03-16T20:14:34.071Z,13.00
2019-03-16T20:19:41.414Z,12.90
2019-03-16T20:24:49.394Z,12.90
2019-03-16T20:29:56.972Z,13.00
2019-03-16T20:35:04.971Z,12.80
2019-03-16T20:40:13.896Z,12.70
2019-03-16T20:45:22.121Z,12.80
2019-03-16T20:50:29.908Z,12.70
2019-03-16T20:55:40.334Z,12.90
2019-03-16T21:00:51.368Z,13.30
2019-03-16T21:05:59.101Z,13.10
2019-03-16T21:11:11.300Z,12.70
2019-03-16T21:16:22.367Z,12.70
2019-03-16T21:21:31.529Z,12.60
2019-03-16T21:26:52.885Z,12.50
2019-03-16T21:32:01.157Z,12.40
2019-03-16T21:37:10.478Z,12.10
2019-03-16T21:42:18.280Z,11.90
2019-03-16T21:47:24.481Z,11.80
2019-03-16T21:52:30.614Z,11.70
2019-03-16T21:57:38.671Z,11.60
2019-03-16T22:02:46.585Z,11.70
2019-03-16T22:07:54.090Z,11.40
2019-03-16T22:13:02.285Z,11.10
2019-03-16T22:18:10.100Z,11.10
2019-03-16T22:23:17.812Z,11.40
2019-03-16T22:28:23.837Z,11.50
2019-03-16T22:33:34.175Z,11.40
2019-03-16T22:38:41.308Z,11.10
2019-03-16T22:43:50.670Z,10.90
2019-03-16T22:49:00.669Z,11.00
2019-03-16T22:54:08.508Z,10.80
2019-03-16T22:59:14.713Z,10.80
2019-03-16T23:04:22.137Z,10.80
2019-03-16T23:09:29.682Z,10.90
2019-03-16T23:14:36.664Z,11.10
2019-03-16T23:19:44.351Z,11.10
2019-03-16T23:24:51.969Z,11.20
2019-03-16T23:29:59.554Z,10.50
2019-03-16T23:35:08.963Z,10.60
2019-03-16T23:40:17.398Z,9.90
2019-03-16T23:45:24.355Z,10.00
2019-03-16T23:50:31.926Z,10.20
2019-03-16T23:55:38.643Z,10.30
